Flight Track Log - Related Links

Times and Time Zones

All times are in EDT time to prevent confusion due to time zone crossing. See the SKW4664 flight status page for this flight to view local times or setup timezone preferences in your user account.

Time Position Orientation Groundspeed Altitude Reporting Facility
EDT Latitude Longitude Course Direction KTS MPH feet Rate Location/Type
Tue 12:05:55 PM 43.6011 -96.7467 52° Northeast 137 158 2,600  Level Minneapolis Center
Tue 12:06:57 PM 43.6331 -96.7022 45° Northeast 165 190 4,600 2,177 Climbing Minneapolis Center
Tue 12:07:59 PM 43.6728 -96.6228 55° Northeast 221 254 7,100 2,855 Climbing Minneapolis Center
Tue 12:09:00 PM 43.8523 -96.2348 53° Northeast  Level FlightAware Approximate
Tue 12:09:01 PM 43.7269 -96.5264 52° Northeast 251 289 10,500  Level Minneapolis Center
Tue 12:10:00 PM 43.9221 -96.1068 52° Northeast  Level FlightAware Approximate
Tue 12:10:03 PM 43.7753 -96.4386 53° Northeast 268 308 12,300  Level Minneapolis Center
Tue 12:11:00 PM 43.9929 -95.9798 52° Northeast  Level FlightAware Approximate
Tue 12:11:05 PM 43.8303 -96.3372 53° Northeast 305 351 14,100  Level Minneapolis Center
Tue 12:12:07 PM 43.8878 -96.2289 54° Northeast 346 398 16,300 1,742 Climbing Minneapolis Center
Tue 12:13:09 PM 43.9481 -96.1186 53° Northeast 361 415 17,700 1,561 Climbing Minneapolis Center
Tue 12:14:10 PM 44.0239 -95.9786 53° Northeast 383 441 19,500 1,610 Climbing Minneapolis Center
Tue 12:15:12 PM 44.0875 -95.8594 53° Northeast 389 448 21,000 1,210 Climbing Minneapolis Center
Tue 12:16:14 PM 44.1550 -95.7308 54° Northeast 408 470 22,000 871 Climbing Minneapolis Center
Tue 12:17:16 PM 44.2169 -95.5892 59° Northeast 427 491 22,800 484 Climbing Minneapolis Center
Tue 12:18:18 PM 44.2697 -95.4300 65° Northeast 448 516 23,000 98 Climbing Minneapolis Center
Tue 12:19:19 PM 44.3239 -95.2706 65° Northeast 455 524 23,000  Level Minneapolis Center
Tue 12:20:21 PM 44.3778 -95.1139 64° Northeast 452 520 23,000  Level Minneapolis Center
Tue 12:21:23 PM 44.4400 -94.9281 65° Northeast 444 511 23,000  Level Minneapolis Center
Tue 12:22:25 PM 44.4911 -94.7725 65° Northeast 442 509 23,000 -1,415 Level Minneapolis Center
Tue 12:23:26 PM 44.5475 -94.6000 65° Northeast 443 510 20,100 -2,922 Descending Minneapolis Center
Tue 12:24:59 PM 44.6261 -94.3781 63° Northeast 399 459 15,500 -2,920 Descending FAA TRACON SMA TRACON (SMA)
Tue 12:25:19 PM 44.6397 -94.3358 66° East 390 449 14,600 -2,634 Descending FAA TRACON SMA TRACON (SMA)
Tue 12:25:40 PM 44.6533 -94.2933 66° East 387 445 13,700 -3,150 Descending FAA TRACON SMA TRACON (SMA)
Tue 12:25:59 PM 44.6697 -94.2411 66° East 382 440 12,500 -3,231 Descending FAA TRACON SMA TRACON (SMA)
Tue 12:26:19 PM 44.6825 -94.2000 66° East 375 432 11,600 -2,195 Descending FAA TRACON SMA TRACON (SMA)
Tue 12:26:40 PM 44.6953 -94.1603 66° East 367 422 11,000 -1,200 Descending FAA TRACON SMA TRACON (SMA)
Tue 12:26:59 PM 44.7067 -94.1122 72° East 342 394 10,800 -154 Descending FAA TRACON SMA TRACON (SMA)
Tue 12:27:19 PM 44.7131 -94.0750 76° East 323 372 10,900 146 Climbing FAA TRACON SMA TRACON (SMA)
Tue 12:27:40 PM 44.7217 -94.0386 72° East 317 365 10,900  Level FAA TRACON SMA TRACON (SMA)
Tue 12:28:00 PM 44.7317 -93.9919 73° East 324 373 10,900  Level FAA TRACON SMA TRACON (SMA)
Tue 12:28:19 PM 44.7394 -93.9539 74° East 328 377 10,900  Level FAA TRACON SMA TRACON (SMA)
Tue 12:28:40 PM 44.7489 -93.9169 70° East 327 376 10,900  Level FAA TRACON SMA TRACON (SMA)
Tue 12:29:00 PM 44.7594 -93.8700 72° East 328 377 10,900  Level FAA TRACON SMA TRACON (SMA)
Tue 12:29:20 PM 44.7675 -93.8328 73° East 325 374 10,900  Level FAA TRACON SMA TRACON (SMA)
Tue 12:29:40 PM 44.7747 -93.7947 75° East 326 375 10,900  Level FAA TRACON SMA TRACON (SMA)
Tue 12:30:00 PM 44.7856 -93.7483 72° East 325 374 10,900  Level FAA TRACON SMA TRACON (SMA)
Tue 12:30:21 PM 44.7942 -93.7111 72° East 326 375 10,900 -590 Level FAA TRACON SMA TRACON (SMA)
Tue 12:31:01 PM 44.8111 -93.6292 74° East 312 359 10,300 -1,017 Descending FAA TRACON SMA TRACON (SMA)
Tue 12:31:20 PM 44.8183 -93.5950 73° East 301 346 9,900 -1,231 Descending FAA TRACON SMA TRACON (SMA)
Tue 12:31:40 PM 44.8261 -93.5617 72° East 291 335 9,500 -1,500 Descending FAA TRACON SMA TRACON (SMA)
Tue 12:32:00 PM 44.8350 -93.5206 73° East 288 331 8,900 -1,650 Descending FAA TRACON SMA TRACON (SMA)
Tue 12:32:20 PM 44.8419 -93.4878 73° East 284 327 8,400 -1,350 Descending FAA TRACON SMA TRACON (SMA)
Tue 12:32:40 PM 44.8489 -93.4556 73° East 281 323 8,000 -750 Descending FAA TRACON SMA TRACON (SMA)
Tue 12:33:00 PM 44.8575 -93.4161 73° East 276 318 7,900 -150 Descending FAA TRACON SMA TRACON (SMA)
Tue 12:33:20 PM 44.8642 -93.3842 74° East 275 316 7,900  Level FAA TRACON SMA TRACON (SMA)
Tue 12:33:40 PM 44.8603 -93.3511 99° East 285 328 7,900  Level FAA TRACON SMA TRACON (SMA)
Tue 12:34:00 PM 44.8372 -93.3222 138° Southeast 298 343 7,900  Level FAA TRACON SMA TRACON (SMA)
Tue 12:34:20 PM 44.8136 -93.3125 164° South 294 338 7,900 -878 Level FAA TRACON SMA TRACON (SMA)
Tue 12:34:41 PM 44.7897 -93.3039 166° South 287 330 7,300 -1,902 Descending FAA TRACON SMA TRACON (SMA)
Tue 12:35:01 PM 44.7600 -93.2950 168° South 283 326 6,600 -1,800 Descending FAA TRACON SMA TRACON (SMA)
Tue 12:35:21 PM 44.7367 -93.2881 168° South 280 322 6,100 -1,050 Descending FAA TRACON SMA TRACON (SMA)
Tue 12:35:41 PM 44.7083 -93.2856 176° South 269 310 5,900 -308 Descending FAA TRACON SMA TRACON (SMA)
Tue 12:36:00 PM 44.6875 -93.2844 178° South 248 285 5,900 -154 Level FAA TRACON SMA TRACON (SMA)
Tue 12:36:20 PM 44.6689 -93.2842 179° South 227 261 5,800 -1,050 Descending FAA TRACON SMA TRACON (SMA)
Tue 12:36:40 PM 44.6475 -93.2739 161° South 223 257 5,200 -1,610 Descending FAA TRACON SMA TRACON (SMA)
Tue 12:37:01 PM 44.6406 -93.2511 113° Southeast 228 262 4,700 -1,317 Descending FAA TRACON SMA TRACON (SMA)
Tue 12:37:21 PM 44.6472 -93.2308 65° Northeast 217 250 4,300 -1,200 Descending FAA TRACON SMA TRACON (SMA)
Tue 12:37:41 PM 44.6633 -93.2150 35° Northeast 188 216 3,900 -615 Descending FAA TRACON SMA TRACON (SMA)
Tue 12:38:00 PM 44.6750 -93.2033 35° Northeast 172 198 3,900  Level FAA TRACON SMA TRACON (SMA)
Tue 12:38:20 PM 44.6881 -93.1961 21° North 166 191 3,900  Level FAA TRACON SMA TRACON (SMA)
Tue 12:38:40 PM 44.7019 -93.1953 North 163 188 3,900  Level FAA TRACON SMA TRACON (SMA)
Tue 12:39:00 PM 44.7186 -93.1986 352° North 159 183 3,900 -146 Level FAA TRACON SMA TRACON (SMA)
Tue 12:39:21 PM 44.7314 -93.2017 350° North 155 178 3,800 -878 Descending FAA TRACON SMA TRACON (SMA)
Tue 12:39:41 PM 44.7478 -93.2056 350° North 153 176 3,300 -1,500 Descending FAA TRACON SMA TRACON (SMA)

Login

Don't have an account? Register now (free) for customized features, flight alerts, and more!